sensor_id;sensor_type;location;lat;lon;timestamp;pressure;altitude;pressure_sealevel;temperature;humidity
38466;BME280;24244;51.950;5.902;2023-04-08T00:02:20;102168.56;;;8.39;82.73
38466;BME280;24244;51.950;5.902;2023-04-08T00:04:50;102170.22;;;8.40;82.81
38466;BME280;24244;51.950;5.902;2023-04-08T00:07:17;102174.56;;;8.41;82.75
38466;BME280;24244;51.950;5.902;2023-04-08T00:09:44;102173.03;;;8.38;82.55
38466;BME280;24244;51.950;5.902;2023-04-08T00:12:18;102171.91;;;8.41;82.74
38466;BME280;24244;51.950;5.902;2023-04-08T00:14:45;102172.75;;;8.41;82.65
38466;BME280;24244;51.950;5.902;2023-04-08T00:17:16;102181.66;;;8.40;82.46
38466;BME280;24244;51.950;5.902;2023-04-08T00:19:46;102168.84;;;8.36;82.32
38466;BME280;24244;51.950;5.902;2023-04-08T00:22:15;102167.31;;;8.33;82.69
38466;BME280;24244;51.950;5.902;2023-04-08T00:24:42;102164.66;;;8.33;82.50
38466;BME280;24244;51.950;5.902;2023-04-08T00:27:09;102164.66;;;8.33;82.70
38466;BME280;24244;51.950;5.902;2023-04-08T00:29:38;102169.09;;;8.33;82.15
38466;BME280;24244;51.950;5.902;2023-04-08T00:32:08;102178.16;;;8.30;82.52
38466;BME280;24244;51.950;5.902;2023-04-08T00:34:38;102176.72;;;8.26;82.33
38466;BME280;24244;51.950;5.902;2023-04-08T00:37:06;102175.47;;;8.20;82.67
38466;BME280;24244;51.950;5.902;2023-04-08T00:39:33;102175.72;;;8.17;82.64
38466;BME280;24244;51.950;5.902;2023-04-08T00:42:00;102174.22;;;8.15;82.52
38466;BME280;24244;51.950;5.902;2023-04-08T00:44:28;102179.38;;;8.16;82.82
38466;BME280;24244;51.950;5.902;2023-04-08T00:46:55;102177.81;;;8.14;82.36
38466;BME280;24244;51.950;5.902;2023-04-08T00:49:22;102175.31;;;8.12;82.64
38466;BME280;24244;51.950;5.902;2023-04-08T00:51:50;102184.22;;;8.11;82.16
38466;BME280;24244;51.950;5.902;2023-04-08T00:54:19;102180.44;;;8.04;82.52
38466;BME280;24244;51.950;5.902;2023-04-08T00:56:45;102183.09;;;8.04;82.30
38466;BME280;24244;51.950;5.902;2023-04-08T00:59:13;102184.91;;;8.04;82.86
38466;BME280;24244;51.950;5.902;2023-04-08T01:01:43;102188.66;;;8.01;82.56
38466;BME280;24244;51.950;5.902;2023-04-08T01:04:18;102194.22;;;7.98;82.53
38466;BME280;24244;51.950;5.902;2023-04-08T01:06:54;102191.84;;;7.95;82.61
38466;BME280;24244;51.950;5.902;2023-04-08T01:09:26;102201.16;;;7.90;82.49
38466;BME280;24244;51.950;5.902;2023-04-08T01:11:55;102195.16;;;7.88;82.51
38466;BME280;24244;51.950;5.902;2023-04-08T01:14:25;102199.63;;;7.87;82.70
38466;BME280;24244;51.950;5.902;2023-04-08T01:16:54;102190.84;;;7.86;82.61
38466;BME280;24244;51.950;5.902;2023-04-08T01:19:28;102189.28;;;7.84;82.70
38466;BME280;24244;51.950;5.902;2023-04-08T01:22:04;102188.88;;;7.79;82.58
38466;BME280;24244;51.950;5.902;2023-04-08T01:24:43;102187.44;;;7.75;82.54
38466;BME280;24244;51.950;5.902;2023-04-08T01:27:13;102192.28;;;7.70;82.85
38466;BME280;24244;51.950;5.902;2023-04-08T01:29:40;102196.44;;;7.63;82.48
38466;BME280;24244;51.950;5.902;2023-04-08T01:32:09;102188.91;;;7.58;82.91
38466;BME280;24244;51.950;5.902;2023-04-08T01:34:37;102195.03;;;7.59;83.11
38466;BME280;24244;51.950;5.902;2023-04-08T01:37:06;102192.41;;;7.59;83.01
38466;BME280;24244;51.950;5.902;2023-04-08T01:39:34;102201.41;;;7.56;82.83
38466;BME280;24244;51.950;5.902;2023-04-08T01:42:01;102201.81;;;7.52;82.89
38466;BME280;24244;51.950;5.902;2023-04-08T01:44:30;102206.41;;;7.50;82.96
38466;BME280;24244;51.950;5.902;2023-04-08T01:46:59;102201.81;;;7.52;82.88
38466;BME280;24244;51.950;5.902;2023-04-08T01:49:27;102204.47;;;7.52;82.91
38466;BME280;24244;51.950;5.902;2023-04-08T01:51:57;102197.50;;;7.51;82.67
38466;BME280;24244;51.950;5.902;2023-04-08T01:54:26;102202.19;;;7.47;82.67
38466;BME280;24244;51.950;5.902;2023-04-08T01:56:54;102201.50;;;7.45;83.00
38466;BME280;24244;51.950;5.902;2023-04-08T01:59:23;102204.53;;;7.40;82.75
38466;BME280;24244;51.950;5.902;2023-04-08T02:01:55;102198.81;;;7.35;82.73
38466;BME280;24244;51.950;5.902;2023-04-08T02:04:22;102202.53;;;7.33;83.22
38466;BME280;24244;51.950;5.902;2023-04-08T02:06:49;102202.53;;;7.33;83.22
38466;BME280;24244;51.950;5.902;2023-04-08T02:09:16;102201.00;;;7.30;83.09
38466;BME280;24244;51.950;5.902;2023-04-08T02:11:43;102198.59;;;7.27;83.06
38466;BME280;24244;51.950;5.902;2023-04-08T02:14:10;102203.19;;;7.25;82.91
38466;BME280;24244;51.950;5.902;2023-04-08T02:16:40;102201.53;;;7.24;82.87
38466;BME280;24244;51.950;5.902;2023-04-08T02:19:14;102198.03;;;7.24;82.97
38466;BME280;24244;51.950;5.902;2023-04-08T02:21:47;102189.25;;;7.23;82.96
38466;BME280;24244;51.950;5.902;2023-04-08T02:24:16;102196.59;;;7.20;82.59
38466;BME280;24244;51.950;5.902;2023-04-08T02:26:44;102199.38;;;7.18;82.62
38466;BME280;24244;51.950;5.902;2023-04-08T02:29:14;102201.19;;;7.18;82.40
38466;BME280;24244;51.950;5.902;2023-04-08T02:31:42;102197.72;;;7.17;82.78
38466;BME280;24244;51.950;5.902;2023-04-08T02:34:11;102203.97;;;7.16;82.38
38466;BME280;24244;51.950;5.902;2023-04-08T02:36:39;102200.72;;;7.13;82.47
38466;BME280;24244;51.950;5.902;2023-04-08T02:39:08;102205.19;;;7.12;82.26
38466;BME280;24244;51.950;5.902;2023-04-08T02:41:34;102203.50;;;7.11;82.28
38466;BME280;24244;51.950;5.902;2023-04-08T02:44:01;102202.81;;;7.09;82.34
38466;BME280;24244;51.950;5.902;2023-04-08T02:46:28;102203.06;;;7.06;81.92
38466;BME280;24244;51.950;5.902;2023-04-08T02:48:57;102213.91;;;7.03;82.05
38466;BME280;24244;51.950;5.902;2023-04-08T02:51:25;102210.78;;;6.98;82.02
38466;BME280;24244;51.950;5.902;2023-04-08T02:53:53;102211.28;;;6.92;81.76
38466;BME280;24244;51.950;5.902;2023-04-08T02:56:20;102214.19;;;6.89;82.10
38466;BME280;24244;51.950;5.902;2023-04-08T02:58:48;102207.47;;;6.85;82.18
38466;BME280;24244;51.950;5.902;2023-04-08T03:01:15;102215.66;;;6.82;82.01
38466;BME280;24244;51.950;5.902;2023-04-08T03:03:43;102227.19;;;6.81;82.08
38466;BME280;24244;51.950;5.902;2023-04-08T03:06:10;102224.81;;;6.78;81.70
38466;BME280;24244;51.950;5.902;2023-04-08T03:08:38;102222.66;;;6.72;81.74
38466;BME280;24244;51.950;5.902;2023-04-08T03:11:05;102222.22;;;6.66;81.74
38466;BME280;24244;51.950;5.902;2023-04-08T03:13:34;102230.38;;;6.63;81.81
38466;BME280;24244;51.950;5.902;2023-04-08T03:16:04;102229.19;;;6.56;81.85
38466;BME280;24244;51.950;5.902;2023-04-08T03:18:31;102236.16;;;6.57;82.27
38466;BME280;24244;51.950;5.902;2023-04-08T03:20:58;102231.09;;;6.54;81.83
38466;BME280;24244;51.950;5.902;2023-04-08T03:23:24;102233.91;;;6.53;81.64
38466;BME280;24244;51.950;5.902;2023-04-08T03:25:52;102234.25;;;6.48;81.71
38466;BME280;24244;51.950;5.902;2023-04-08T03:28:19;102241.47;;;6.46;81.82
38466;BME280;24244;51.950;5.902;2023-04-08T03:30:46;102238.34;;;6.41;81.76
38466;BME280;24244;51.950;5.902;2023-04-08T03:33:13;102240.41;;;6.38;81.73
38466;BME280;24244;51.950;5.902;2023-04-08T03:35:40;102236.31;;;6.34;81.74
38466;BME280;24244;51.950;5.902;2023-04-08T03:38:07;102238.38;;;6.30;81.84
38466;BME280;24244;51.950;5.902;2023-04-08T03:40:34;102249.16;;;6.27;81.71
38466;BME280;24244;51.950;5.902;2023-04-08T03:43:02;102244.00;;;6.25;81.43
38466;BME280;24244;51.950;5.902;2023-04-08T03:45:31;102250.38;;;6.23;81.47
38466;BME280;24244;51.950;5.902;2023-04-08T03:47:57;102249.91;;;6.18;81.52
38466;BME280;24244;51.950;5.902;2023-04-08T03:50:24;102244.88;;;6.15;81.42
38466;BME280;24244;51.950;5.902;2023-04-08T03:52:51;102252.91;;;6.13;81.65
38466;BME280;24244;51.950;5.902;2023-04-08T03:55:21;102255.66;;;6.12;81.52
38466;BME280;24244;51.950;5.902;2023-04-08T03:57:48;102254.13;;;6.09;81.53
38466;BME280;24244;51.950;5.902;2023-04-08T04:00:17;102249.06;;;6.06;81.48
38466;BME280;24244;51.950;5.902;2023-04-08T04:02:44;102254.72;;;6.02;81.20
38466;BME280;24244;51.950;5.902;2023-04-08T04:05:12;102260.22;;;5.99;81.45
38466;BME280;24244;51.950;5.902;2023-04-08T04:07:39;102258.69;;;5.96;81.37
38466;BME280;24244;51.950;5.902;2023-04-08T04:10:07;102264.19;;;5.93;81.40
38466;BME280;24244;51.950;5.902;2023-04-08T04:12:34;102264.41;;;5.90;81.26
38466;BME280;24244;51.950;5.902;2023-04-08T04:15:01;102265.69;;;5.84;81.27
38466;BME280;24244;51.950;5.902;2023-04-08T04:17:30;102266.91;;;5.80;81.16
38466;BME280;24244;51.950;5.902;2023-04-08T04:19:57;102270.72;;;5.76;81.38
38466;BME280;24244;51.950;5.902;2023-04-08T04:22:24;102273.59;;;5.73;81.38
38466;BME280;24244;51.950;5.902;2023-04-08T04:24:51;102272.88;;;5.71;81.29
38466;BME280;24244;51.950;5.902;2023-04-08T04:27:18;102281.03;;;5.68;81.34
38466;BME280;24244;51.950;5.902;2023-04-08T04:29:47;102279.34;;;5.67;81.24
38466;BME280;24244;51.950;5.902;2023-04-08T04:32:14;102281.50;;;5.62;81.33
38466;BME280;24244;51.950;5.902;2023-04-08T04:34:43;102277.31;;;5.60;81.26
38466;BME280;24244;51.950;5.902;2023-04-08T04:37:10;102278.38;;;5.57;81.24
38466;BME280;24244;51.950;5.902;2023-04-08T04:39:37;102278.47;;;5.56;81.33
38466;BME280;24244;51.950;5.902;2023-04-08T04:42:05;102283.16;;;5.52;80.84
38466;BME280;24244;51.950;5.902;2023-04-08T04:44:32;102286.84;;;5.49;80.97
38466;BME280;24244;51.950;5.902;2023-04-08T04:46:59;102288.66;;;5.49;81.07
38466;BME280;24244;51.950;5.902;2023-04-08T04:49:25;102297.41;;;5.49;81.26
38466;BME280;24244;51.950;5.902;2023-04-08T04:51:54;102310.59;;;5.49;81.05
38466;BME280;24244;51.950;5.902;2023-04-08T04:54:22;102310.00;;;5.46;80.96
38466;BME280;24244;51.950;5.902;2023-04-08T04:56:49;102309.47;;;5.41;81.00
38466;BME280;24244;51.950;5.902;2023-04-08T04:59:16;102314.75;;;5.41;81.07
38466;BME280;24244;51.950;5.902;2023-04-08T05:01:44;102315.00;;;5.38;81.07
38466;BME280;24244;51.950;5.902;2023-04-08T05:04:11;102315.31;;;5.33;81.04
38466;BME280;24244;51.950;5.902;2023-04-08T05:06:38;102317.34;;;5.30;81.02
38466;BME280;24244;51.950;5.902;2023-04-08T05:09:10;102314.94;;;5.27;81.02
38466;BME280;24244;51.950;5.902;2023-04-08T05:11:37;102315.91;;;5.26;80.93
38466;BME280;24244;51.950;5.902;2023-04-08T05:14:04;102314.34;;;5.23;80.99
38466;BME280;24244;51.950;5.902;2023-04-08T05:16:33;102324.16;;;5.21;80.67
38466;BME280;24244;51.950;5.902;2023-04-08T05:19:00;102323.31;;;5.21;80.98
38466;BME280;24244;51.950;5.902;2023-04-08T05:21:30;102327.88;;;5.19;80.99
38466;BME280;24244;51.950;5.902;2023-04-08T05:24:02;102330.72;;;5.16;80.74
38466;BME280;24244;51.950;5.902;2023-04-08T05:26:35;102333.47;;;5.14;80.83
38466;BME280;24244;51.950;5.902;2023-04-08T05:29:03;102340.53;;;5.13;81.21
38466;BME280;24244;51.950;5.902;2023-04-08T05:31:33;102336.19;;;5.12;80.96
38466;BME280;24244;51.950;5.902;2023-04-08T05:33:59;102340.75;;;5.10;81.01
38466;BME280;24244;51.950;5.902;2023-04-08T05:36:27;102340.03;;;5.08;81.08
38466;BME280;24244;51.950;5.902;2023-04-08T05:38:54;102346.25;;;5.07;80.97
38466;BME280;24244;51.950;5.902;2023-04-08T05:41:21;102348.03;;;5.07;80.99
38466;BME280;24244;51.950;5.902;2023-04-08T05:43:51;102350.56;;;5.08;81.30
38466;BME280;24244;51.950;5.902;2023-04-08T05:46:18;102355.59;;;5.11;81.16
38466;BME280;24244;51.950;5.902;2023-04-08T05:48:47;102351.91;;;5.14;81.22
38466;BME280;24244;51.950;5.902;2023-04-08T05:51:15;102351.59;;;5.19;80.77
38466;BME280;24244;51.950;5.902;2023-04-08T05:53:44;102349.91;;;5.18;81.04
38466;BME280;24244;51.950;5.902;2023-04-08T05:56:11;102351.25;;;5.23;81.26
38466;BME280;24244;51.950;5.902;2023-04-08T05:58:41;102358.09;;;5.26;80.80
38466;BME280;24244;51.950;5.902;2023-04-08T06:01:09;102362.38;;;5.27;80.80
38466;BME280;24244;51.950;5.902;2023-04-08T06:03:36;102362.38;;;5.27;80.88
38466;BME280;24244;51.950;5.902;2023-04-08T06:06:03;102362.19;;;5.30;81.17
38466;BME280;24244;51.950;5.902;2023-04-08T06:08:34;102362.06;;;5.31;80.92
38466;BME280;24244;51.950;5.902;2023-04-08T06:11:03;102361.81;;;5.34;80.98
38466;BME280;24244;51.950;5.902;2023-04-08T06:13:31;102366.88;;;5.37;81.41
38466;BME280;24244;51.950;5.902;2023-04-08T06:16:04;102368.56;;;5.38;81.17
38466;BME280;24244;51.950;5.902;2023-04-08T06:18:36;102370.84;;;5.43;81.07
38466;BME280;24244;51.950;5.902;2023-04-08T06:21:03;102373.41;;;5.44;81.23
38466;BME280;24244;51.950;5.902;2023-04-08T06:23:31;102380.09;;;5.48;81.13
38466;BME280;24244;51.950;5.902;2023-04-08T06:25:58;102376.41;;;5.51;81.15
38466;BME280;24244;51.950;5.902;2023-04-08T06:28:25;102377.16;;;5.53;81.02
38466;BME280;24244;51.950;5.902;2023-04-08T06:30:52;102383.97;;;5.56;80.93
38466;BME280;24244;51.950;5.902;2023-04-08T06:33:22;102384.59;;;5.59;81.09
38466;BME280;24244;51.950;5.902;2023-04-08T06:36:02;102389.78;;;5.61;81.10
38466;BME280;24244;51.950;5.902;2023-04-08T06:38:35;102394.69;;;5.65;81.09
38466;BME280;24244;51.950;5.902;2023-04-08T06:41:03;102393.63;;;5.68;81.09
38466;BME280;24244;51.950;5.902;2023-04-08T06:43:34;102397.72;;;5.72;81.24
38466;BME280;24244;51.950;5.902;2023-04-08T06:46:07;102391.38;;;5.74;81.11
38466;BME280;24244;51.950;5.902;2023-04-08T06:48:36;102399.88;;;5.78;80.80
38466;BME280;24244;51.950;5.902;2023-04-08T06:51:05;102401.47;;;5.80;81.01
38466;BME280;24244;51.950;5.902;2023-04-08T06:53:33;102410.81;;;5.84;81.14
38466;BME280;24244;51.950;5.902;2023-04-08T06:56:04;102401.00;;;5.86;81.08
38466;BME280;24244;51.950;5.902;2023-04-08T06:58:30;102407.75;;;5.90;81.19
38466;BME280;24244;51.950;5.902;2023-04-08T07:00:59;102411.00;;;5.94;81.14
38466;BME280;24244;51.950;5.902;2023-04-08T07:03:28;102412.44;;;5.98;81.15
38466;BME280;24244;51.950;5.902;2023-04-08T07:05:58;102413.06;;;6.02;80.95
38466;BME280;24244;51.950;5.902;2023-04-08T07:08:29;102420.75;;;6.05;81.00
38466;BME280;24244;51.950;5.902;2023-04-08T07:10:56;102421.38;;;6.08;81.07
38466;BME280;24244;51.950;5.902;2023-04-08T07:13:25;102426.28;;;6.13;80.93
38466;BME280;24244;51.950;5.902;2023-04-08T07:15:55;102425.97;;;6.17;81.05
38466;BME280;24244;51.950;5.902;2023-04-08T07:18:25;102430.78;;;6.23;80.86
38466;BME280;24244;51.950;5.902;2023-04-08T07:20:52;102435.81;;;6.26;80.91
38466;BME280;24244;51.950;5.902;2023-04-08T07:23:20;102435.56;;;6.29;80.65
38466;BME280;24244;51.950;5.902;2023-04-08T07:25:48;102442.28;;;6.34;80.99
38466;BME280;24244;51.950;5.902;2023-04-08T07:28:15;102442.06;;;6.37;80.66
38466;BME280;24244;51.950;5.902;2023-04-08T07:30:42;102436.53;;;6.40;80.77
38466;BME280;24244;51.950;5.902;2023-04-08T07:33:09;102437.16;;;6.43;80.72
38466;BME280;24244;51.950;5.902;2023-04-08T07:35:36;102444.84;;;6.46;80.80
38466;BME280;24244;51.950;5.902;2023-04-08T07:38:03;102450.72;;;6.50;80.68
38466;BME280;24244;51.950;5.902;2023-04-08T07:40:35;102454.00;;;6.53;80.67
38466;BME280;24244;51.950;5.902;2023-04-08T07:43:03;102451.81;;;6.58;80.84
38466;BME280;24244;51.950;5.902;2023-04-08T07:45:30;102449.78;;;6.62;80.61
38466;BME280;24244;51.950;5.902;2023-04-08T07:47:57;102446.91;;;6.65;80.29
38466;BME280;24244;51.950;5.902;2023-04-08T07:50:24;102450.13;;;6.68;80.38
38466;BME280;24244;51.950;5.902;2023-04-08T07:52:50;102448.13;;;6.72;80.57
38466;BME280;24244;51.950;5.902;2023-04-08T07:55:19;102448.69;;;6.76;80.47
38466;BME280;24244;51.950;5.902;2023-04-08T07:57:46;102451.13;;;6.79;80.33
38466;BME280;24244;51.950;5.902;2023-04-08T08:00:15;102454.34;;;6.82;80.37
38466;BME280;24244;51.950;5.902;2023-04-08T08:02:47;102454.84;;;6.87;80.37
38466;BME280;24244;51.950;5.902;2023-04-08T08:05:16;102456.28;;;6.91;80.21
38466;BME280;24244;51.950;5.902;2023-04-08T08:07:48;102454.94;;;6.97;80.40
38466;BME280;24244;51.950;5.902;2023-04-08T08:10:16;102451.09;;;7.01;80.40
38466;BME280;24244;51.950;5.902;2023-04-08T08:12:49;102456.88;;;7.06;80.05
38466;BME280;24244;51.950;5.902;2023-04-08T08:15:21;102448.56;;;7.11;79.95
38466;BME280;24244;51.950;5.902;2023-04-08T08:17:49;102455.03;;;7.18;80.10
38466;BME280;24244;51.950;5.902;2023-04-08T08:20:16;102449.97;;;7.26;79.85
38466;BME280;24244;51.950;5.902;2023-04-08T08:22:43;102460.06;;;7.32;79.88
38466;BME280;24244;51.950;5.902;2023-04-08T08:25:23;102462.34;;;7.36;79.75
38466;BME280;24244;51.950;5.902;2023-04-08T08:27:53;102467.25;;;7.41;79.71
38466;BME280;24244;51.950;5.902;2023-04-08T08:30:22;102463.28;;;7.46;79.42
38466;BME280;24244;51.950;5.902;2023-04-08T08:32:50;102470.75;;;7.53;79.59
38466;BME280;24244;51.950;5.902;2023-04-08T08:35:18;102476.50;;;7.58;79.48
38466;BME280;24244;51.950;5.902;2023-04-08T08:37:45;102481.28;;;7.64;79.51
38466;BME280;24244;51.950;5.902;2023-04-08T08:40:13;102482.59;;;7.69;79.42
38466;BME280;24244;51.950;5.902;2023-04-08T08:42:40;102494.94;;;7.80;79.39
38466;BME280;24244;51.950;5.902;2023-04-08T08:45:08;102482.06;;;7.86;79.24
38466;BME280;24244;51.950;5.902;2023-04-08T08:47:37;102484.19;;;7.93;79.29
38466;BME280;24244;51.950;5.902;2023-04-08T08:50:05;102480.06;;;8.00;78.92
38466;BME280;24244;51.950;5.902;2023-04-08T08:52:33;102476.06;;;8.05;79.07
38466;BME280;24244;51.950;5.902;2023-04-08T08:55:00;102472.22;;;8.09;78.96
38466;BME280;24244;51.950;5.902;2023-04-08T08:57:38;102485.78;;;8.16;78.64
38466;BME280;24244;51.950;5.902;2023-04-08T09:00:08;102490.56;;;8.22;78.45
38466;BME280;24244;51.950;5.902;2023-04-08T09:02:39;102495.94;;;8.32;78.72
38466;BME280;24244;51.950;5.902;2023-04-08T09:05:07;102496.00;;;8.41;78.29
38466;BME280;24244;51.950;5.902;2023-04-08T09:07:35;102492.00;;;8.47;78.24
38466;BME280;24244;51.950;5.902;2023-04-08T09:10:04;102502.06;;;8.53;78.29
38466;BME280;24244;51.950;5.902;2023-04-08T09:12:32;102505.19;;;8.58;78.01
38466;BME280;24244;51.950;5.902;2023-04-08T09:15:02;102499.50;;;8.62;78.01
38466;BME280;24244;51.950;5.902;2023-04-08T09:17:31;102498.13;;;8.68;78.15
38466;BME280;24244;51.950;5.902;2023-04-08T09:20:09;102498.31;;;8.76;78.08
38466;BME280;24244;51.950;5.902;2023-04-08T09:22:57;102498.75;;;8.81;77.66
38466;BME280;24244;51.950;5.902;2023-04-08T09:25:25;102498.50;;;8.84;77.55
38466;BME280;24244;51.950;5.902;2023-04-08T09:27:53;102493.78;;;8.88;77.52
38466;BME280;24244;51.950;5.902;2023-04-08T09:30:23;102495.06;;;8.93;77.71
38466;BME280;24244;51.950;5.902;2023-04-08T09:32:54;102495.59;;;8.97;77.63
38466;BME280;24244;51.950;5.902;2023-04-08T09:35:23;102489.09;;;9.01;77.50
38466;BME280;24244;51.950;5.902;2023-04-08T09:37:52;102489.63;;;9.04;77.41
38466;BME280;24244;51.950;5.902;2023-04-08T09:40:20;102485.88;;;9.07;77.31
38466;BME280;24244;51.950;5.902;2023-04-08T09:42:49;102486.31;;;9.12;77.54
38466;BME280;24244;51.950;5.902;2023-04-08T09:45:19;102484.94;;;9.18;77.37
38466;BME280;24244;51.950;5.902;2023-04-08T09:47:55;102488.88;;;9.23;77.26
38466;BME280;24244;51.950;5.902;2023-04-08T09:50:31;102490.84;;;9.31;77.40
38466;BME280;24244;51.950;5.902;2023-04-08T09:53:01;102495.34;;;9.40;76.76
38466;BME280;24244;51.950;5.902;2023-04-08T09:55:35;102492.84;;;9.48;76.87
38466;BME280;24244;51.950;5.902;2023-04-08T09:58:07;102495.91;;;9.53;76.60
38466;BME280;24244;51.950;5.902;2023-04-08T10:00:39;102500.69;;;9.59;76.74
38466;BME280;24244;51.950;5.902;2023-04-08T10:03:25;102496.66;;;9.65;76.63
38466;BME280;24244;51.950;5.902;2023-04-08T10:05:56;102494.41;;;9.70;76.78
38466;BME280;24244;51.950;5.902;2023-04-08T10:08:24;102497.66;;;9.83;76.03
38466;BME280;24244;51.950;5.902;2023-04-08T10:10:53;102493.03;;;9.95;76.07
38466;BME280;24244;51.950;5.902;2023-04-08T10:13:20;102493.88;;;10.05;75.69
38466;BME280;24244;51.950;5.902;2023-04-08T10:16:22;102498.66;;;10.20;75.85
38466;BME280;24244;51.950;5.902;2023-04-08T10:18:53;102494.31;;;10.29;75.39
38466;BME280;24244;51.950;5.902;2023-04-08T10:21:35;102495.84;;;10.41;75.22
38466;BME280;24244;51.950;5.902;2023-04-08T10:24:07;102499.59;;;10.48;75.45
38466;BME280;24244;51.950;5.902;2023-04-08T10:26:39;102497.59;;;10.60;75.05
38466;BME280;24244;51.950;5.902;2023-04-08T10:29:34;102499.28;;;10.71;74.78
38466;BME280;24244;51.950;5.902;2023-04-08T10:32:01;102505.69;;;10.78;74.79
38466;BME280;24244;51.950;5.902;2023-04-08T10:34:28;102490.25;;;10.91;74.76
38466;BME280;24244;51.950;5.902;2023-04-08T10:37:00;102482.91;;;11.03;74.36
38466;BME280;24244;51.950;5.902;2023-04-08T10:39:29;102475.84;;;11.11;74.21
38466;BME280;24244;51.950;5.902;2023-04-08T10:41:57;102485.78;;;11.19;74.23
38466;BME280;24244;51.950;5.902;2023-04-08T10:44:24;102474.00;;;11.21;73.95
38466;BME280;24244;51.950;5.902;2023-04-08T10:46:55;102471.72;;;11.26;73.92
38466;BME280;24244;51.950;5.902;2023-04-08T10:49:31;102469.16;;;11.34;73.38
38466;BME280;24244;51.950;5.902;2023-04-08T10:52:05;102463.75;;;11.44;73.48
38466;BME280;24244;51.950;5.902;2023-04-08T10:54:32;102469.16;;;11.52;73.15
38466;BME280;24244;51.950;5.902;2023-04-08T10:57:00;102465.75;;;11.60;73.44
38466;BME280;24244;51.950;5.902;2023-04-08T10:59:27;102464.00;;;11.68;73.26
38466;BME280;24244;51.950;5.902;2023-04-08T11:01:55;102467.91;;;11.74;72.79
38466;BME280;24244;51.950;5.902;2023-04-08T11:04:23;102464.34;;;11.83;73.27
38466;BME280;24244;51.950;5.902;2023-04-08T11:06:51;102467.78;;;11.93;72.60
38466;BME280;24244;51.950;5.902;2023-04-08T11:09:20;102467.16;;;11.99;72.01
38466;BME280;24244;51.950;5.902;2023-04-08T11:11:47;102464.88;;;12.04;71.21
38466;BME280;24244;51.950;5.902;2023-04-08T11:14:15;102476.31;;;12.14;71.21
38466;BME280;24244;51.950;5.902;2023-04-08T11:16:45;102477.34;;;12.22;70.83
38466;BME280;24244;51.950;5.902;2023-04-08T11:19:12;102477.72;;;12.27;71.09
38466;BME280;24244;51.950;5.902;2023-04-08T11:21:39;102474.28;;;12.34;70.80
38466;BME280;24244;51.950;5.902;2023-04-08T11:24:09;102473.16;;;12.45;71.04
38466;BME280;24244;51.950;5.902;2023-04-08T11:26:39;102473.06;;;12.54;70.62
38466;BME280;24244;51.950;5.902;2023-04-08T11:29:09;102470.47;;;12.63;69.40
38466;BME280;24244;51.950;5.902;2023-04-08T11:31:40;102467.94;;;12.61;68.58
38466;BME280;24244;51.950;5.902;2023-04-08T11:34:08;102460.00;;;12.69;68.55
38466;BME280;24244;51.950;5.902;2023-04-08T11:36:35;102465.53;;;12.76;68.86
38466;BME280;24244;51.950;5.902;2023-04-08T11:39:06;102463.91;;;12.83;68.42
38466;BME280;24244;51.950;5.902;2023-04-08T11:41:38;102457.41;;;12.85;68.50
38466;BME280;24244;51.950;5.902;2023-04-08T11:44:06;102456.09;;;12.89;68.45
38466;BME280;24244;51.950;5.902;2023-04-08T11:46:33;102462.75;;;12.93;68.14
38466;BME280;24244;51.950;5.902;2023-04-08T11:49:03;102459.47;;;13.00;68.12
38466;BME280;24244;51.950;5.902;2023-04-08T11:51:31;102464.81;;;13.00;66.96
38466;BME280;24244;51.950;5.902;2023-04-08T11:54:00;102462.16;;;13.00;66.25
38466;BME280;24244;51.950;5.902;2023-04-08T11:56:44;102468.31;;;13.00;66.36
38466;BME280;24244;51.950;5.902;2023-04-08T11:59:12;102463.28;;;12.97;65.43
38466;BME280;24244;51.950;5.902;2023-04-08T12:01:39;102470.47;;;12.97;65.14
38466;BME280;24244;51.950;5.902;2023-04-08T12:04:06;102463.44;;;12.95;65.01
38466;BME280;24244;51.950;5.902;2023-04-08T12:06:36;102462.31;;;12.98;64.93
38466;BME280;24244;51.950;5.902;2023-04-08T12:09:03;102463.78;;;13.01;64.86
38466;BME280;24244;51.950;5.902;2023-04-08T12:11:29;102468.97;;;13.02;65.02
38466;BME280;24244;51.950;5.902;2023-04-08T12:13:58;102465.16;;;13.05;65.33
38466;BME280;24244;51.950;5.902;2023-04-08T12:16:25;102465.66;;;13.08;65.32
38466;BME280;24244;51.950;5.902;2023-04-08T12:18:52;102468.56;;;13.15;65.44
38466;BME280;24244;51.950;5.902;2023-04-08T12:21:19;102466.91;;;13.22;65.52
38466;BME280;24244;51.950;5.902;2023-04-08T12:23:46;102470.81;;;13.27;65.42
38466;BME280;24244;51.950;5.902;2023-04-08T12:26:13;102472.97;;;13.32;65.43
38466;BME280;24244;51.950;5.902;2023-04-08T12:28:40;102457.28;;;13.37;65.22
38466;BME280;24244;51.950;5.902;2023-04-08T12:31:08;102461.16;;;13.43;65.73
38466;BME280;24244;51.950;5.902;2023-04-08T12:33:35;102468.53;;;13.49;65.42
38466;BME280;24244;51.950;5.902;2023-04-08T12:36:02;102466.19;;;13.54;65.01
38466;BME280;24244;51.950;5.902;2023-04-08T12:38:30;102463.69;;;13.60;65.30
38466;BME280;24244;51.950;5.902;2023-04-08T12:40:57;102456.19;;;13.64;65.07
38466;BME280;24244;51.950;5.902;2023-04-08T12:43:24;102459.88;;;13.71;64.92
38466;BME280;24244;51.950;5.902;2023-04-08T12:45:51;102462.38;;;13.72;62.89
38466;BME280;24244;51.950;5.902;2023-04-08T12:48:19;102455.56;;;13.78;63.72
38466;BME280;24244;51.950;5.902;2023-04-08T12:50:46;102463.06;;;13.83;63.64
38466;BME280;24244;51.950;5.902;2023-04-08T12:53:13;102458.03;;;13.88;63.30
38466;BME280;24244;51.950;5.902;2023-04-08T12:55:40;102455.69;;;13.93;63.41
38466;BME280;24244;51.950;5.902;2023-04-08T12:58:10;102448.19;;;13.96;63.33
38466;BME280;24244;51.950;5.902;2023-04-08T13:00:36;102452.69;;;13.96;62.82
38466;BME280;24244;51.950;5.902;2023-04-08T13:03:03;102450.69;;;13.98;62.64
38466;BME280;24244;51.950;5.902;2023-04-08T13:05:33;102458.06;;;14.04;62.75
38466;BME280;24244;51.950;5.902;2023-04-08T13:08:09;102459.38;;;14.08;62.32